createdAt,value
2018-05-01T00:01:57.097Z,0.70
2018-05-01T00:04:24.535Z,0.70
2018-05-01T00:06:51.981Z,0.90
2018-05-01T00:09:19.415Z,0.70
2018-05-01T00:11:46.873Z,0.80
2018-05-01T00:14:14.294Z,0.90
2018-05-01T00:16:41.920Z,0.93
2018-05-01T00:19:09.368Z,0.50
2018-05-01T00:21:36.833Z,0.80
2018-05-01T00:24:04.277Z,0.80
2018-05-01T00:26:31.707Z,0.77
2018-05-01T00:28:59.277Z,0.80
2018-05-01T00:31:26.665Z,0.80
2018-05-01T00:33:54.110Z,0.90
2018-05-01T00:36:21.579Z,0.83
2018-05-01T00:38:49.051Z,0.80
2018-05-01T00:41:16.542Z,0.83
2018-05-01T00:43:43.984Z,0.83
2018-05-01T00:46:11.418Z,0.90
2018-05-01T00:48:38.860Z,1.13
2018-05-01T00:51:06.295Z,0.80
2018-05-01T00:53:33.725Z,1.10
2018-05-01T00:56:01.172Z,1.07
2018-05-01T00:58:28.595Z,1.00
2018-05-01T01:00:56.055Z,1.10
2018-05-01T01:03:23.491Z,0.90
2018-05-01T01:05:50.982Z,1.13
2018-05-01T01:08:18.423Z,1.40
2018-05-01T01:10:45.856Z,1.30
2018-05-01T01:13:13.296Z,0.90
2018-05-01T01:15:40.724Z,0.93
2018-05-01T01:18:08.159Z,0.87
2018-05-01T01:20:36.377Z,1.20
2018-05-01T01:23:03.805Z,1.23
2018-05-01T01:25:31.251Z,1.40
2018-05-01T01:27:58.681Z,1.20
2018-05-01T01:30:26.119Z,0.80
2018-05-01T01:32:53.584Z,0.93
2018-05-01T01:35:20.533Z,1.20
2018-05-01T01:37:47.488Z,0.97
2018-05-01T01:40:14.434Z,1.00
2018-05-01T01:42:41.381Z,1.20
2018-05-01T01:45:08.516Z,1.03
2018-05-01T01:47:35.462Z,1.37
2018-05-01T01:50:02.428Z,1.33
2018-05-01T01:52:29.367Z,0.67
2018-05-01T01:54:56.320Z,0.97
2018-05-01T01:57:23.282Z,1.30
2018-05-01T01:59:50.227Z,1.20
2018-05-01T02:02:17.202Z,1.00
2018-05-01T02:04:44.134Z,1.20
2018-05-01T02:07:11.080Z,1.33
2018-05-01T02:09:38.043Z,1.00
2018-05-01T02:12:04.994Z,1.20
2018-05-01T02:14:32.251Z,1.30
2018-05-01T02:16:59.191Z,0.80
2018-05-01T02:19:26.160Z,1.47
2018-05-01T02:21:53.125Z,1.00
2018-05-01T02:24:20.064Z,1.33
2018-05-01T02:26:47.068Z,1.10
2018-05-01T02:29:13.972Z,1.40
2018-05-01T02:31:40.930Z,1.00
2018-05-01T02:34:07.899Z,1.40
2018-05-01T02:36:34.895Z,1.60
2018-05-01T02:39:01.792Z,1.20
2018-05-01T02:41:28.901Z,1.50
2018-05-01T02:43:55.864Z,1.47
2018-05-01T02:46:22.833Z,0.80
2018-05-01T02:48:49.767Z,1.27
2018-05-01T02:51:16.746Z,1.00
2018-05-01T02:53:43.688Z,1.03
2018-05-01T02:56:10.631Z,1.03
2018-05-01T02:58:37.594Z,1.30
2018-05-01T03:01:04.543Z,1.50
2018-05-01T03:03:31.496Z,0.93
2018-05-01T03:05:58.448Z,0.83
2018-05-01T03:08:26.156Z,1.00
2018-05-01T03:10:53.109Z,0.77
2018-05-01T03:13:20.046Z,1.27
2018-05-01T03:15:47.012Z,0.73
2018-05-01T03:18:13.946Z,1.10
2018-05-01T03:20:41.408Z,0.70
2018-05-01T03:23:08.472Z,0.70
2018-05-01T03:25:35.410Z,0.80
2018-05-01T03:28:02.364Z,1.40
2018-05-01T03:30:29.313Z,1.30
2018-05-01T03:32:56.259Z,1.20
2018-05-01T03:35:23.235Z,0.90
2018-05-01T03:37:50.175Z,0.53
2018-05-01T03:40:17.131Z,0.67
2018-05-01T03:42:44.097Z,1.27
2018-05-01T03:45:11.058Z,0.90
2018-05-01T03:47:38.008Z,1.10
2018-05-01T03:50:04.949Z,1.07
2018-05-01T03:52:31.904Z,1.00
2018-05-01T03:54:58.842Z,1.50
2018-05-01T03:57:26.568Z,1.27
2018-05-01T03:59:53.515Z,0.97
2018-05-01T04:02:20.543Z,1.17
2018-05-01T04:04:47.468Z,1.30
2018-05-01T04:07:14.394Z,0.73
2018-05-01T04:09:41.504Z,1.07
2018-05-01T04:12:08.444Z,1.27
2018-05-01T04:14:35.396Z,1.57
2018-05-01T04:17:02.343Z,1.57
2018-05-01T04:19:29.300Z,1.20
2018-05-01T04:21:56.265Z,1.17
2018-05-01T04:24:23.196Z,1.10
2018-05-01T04:26:50.196Z,1.67
2018-05-01T04:29:17.139Z,1.37
2018-05-01T04:31:44.301Z,1.53
2018-05-01T04:34:11.236Z,1.10
2018-05-01T04:36:38.198Z,1.53
2018-05-01T04:39:05.156Z,1.40
2018-05-01T04:41:32.118Z,1.10
2018-05-01T04:43:59.072Z,1.10
2018-05-01T04:46:26.009Z,1.17
2018-05-01T04:48:52.960Z,0.97
2018-05-01T04:51:19.928Z,1.80
2018-05-01T04:53:46.876Z,1.63
2018-05-01T04:56:13.819Z,1.20
2018-05-01T04:58:40.759Z,1.40
2018-05-01T05:01:07.711Z,0.83
2018-05-01T05:03:34.663Z,1.27
2018-05-01T05:06:01.627Z,1.03
2018-05-01T05:08:28.572Z,1.60
2018-05-01T05:10:56.300Z,1.53
2018-05-01T05:13:23.242Z,1.20
2018-05-01T05:15:50.195Z,1.00
2018-05-01T05:18:17.151Z,1.70
2018-05-01T05:20:44.092Z,1.43
2018-05-01T05:23:11.060Z,1.23
2018-05-01T05:25:38.774Z,1.30
2018-05-01T05:28:05.732Z,1.50
2018-05-01T05:30:32.676Z,2.37
2018-05-01T05:32:59.619Z,0.70
2018-05-01T05:35:26.571Z,1.50
2018-05-01T05:37:53.521Z,1.10
2018-05-01T05:40:20.479Z,1.00
2018-05-01T05:42:47.422Z,1.50
2018-05-01T05:45:14.370Z,1.53
2018-05-01T05:47:41.654Z,1.40
2018-05-01T05:50:08.597Z,2.23
2018-05-01T05:52:35.563Z,1.77
2018-05-01T05:55:02.502Z,1.80
2018-05-01T05:57:29.859Z,1.50
2018-05-01T05:59:56.795Z,1.77
2018-05-01T06:02:23.760Z,1.20
2018-05-01T06:04:50.692Z,1.27
2018-05-01T06:07:17.655Z,1.70
2018-05-01T06:09:44.592Z,1.03
2018-05-01T06:12:11.536Z,1.00
2018-05-01T06:14:38.495Z,0.70
2018-05-01T06:17:05.437Z,1.30
2018-05-01T06:19:32.397Z,1.00
2018-05-01T06:21:59.485Z,1.40
2018-05-01T06:24:26.616Z,1.77
2018-05-01T06:26:53.566Z,1.07
2018-05-01T06:29:20.521Z,0.90
2018-05-01T06:31:47.474Z,1.20
2018-05-01T06:34:14.431Z,1.90
2018-05-01T06:36:41.391Z,1.60
2018-05-01T06:39:09.096Z,0.60
2018-05-01T06:41:36.082Z,1.00
2018-05-01T06:44:03.039Z,0.93
2018-05-01T06:46:29.988Z,1.93
2018-05-01T06:48:56.932Z,1.30
2018-05-01T06:51:23.912Z,1.23
2018-05-01T06:53:50.852Z,1.20
2018-05-01T06:56:17.805Z,1.13
2018-05-01T06:58:44.762Z,1.37
2018-05-01T07:01:11.711Z,1.10
2018-05-01T07:03:39.440Z,1.13
2018-05-01T07:06:06.381Z,0.90
2018-05-01T07:08:33.340Z,1.00
2018-05-01T07:11:00.279Z,0.83
2018-05-01T07:13:27.236Z,1.20
2018-05-01T07:15:54.205Z,0.60
2018-05-01T07:18:21.128Z,1.00
2018-05-01T07:20:48.408Z,0.80
2018-05-01T07:23:15.355Z,1.10
2018-05-01T07:25:42.316Z,0.73
2018-05-01T07:28:10.027Z,0.60
2018-05-01T07:30:37.743Z,0.80
2018-05-01T07:33:04.691Z,0.80
2018-05-01T07:35:31.646Z,1.30
2018-05-01T07:38:00.102Z,0.70
2018-05-01T07:40:27.160Z,0.90
2018-05-01T07:42:54.639Z,0.60
2018-05-01T07:45:21.587Z,0.80
2018-05-01T07:47:48.545Z,0.63
2018-05-01T07:50:15.782Z,0.80
2018-05-01T07:52:42.747Z,0.67
2018-05-01T07:55:10.478Z,0.50
2018-05-01T07:57:37.435Z,0.80
2018-05-01T08:00:04.391Z,0.80
2018-05-01T08:02:31.340Z,0.67
2018-05-01T08:04:58.291Z,1.07
2018-05-01T08:07:25.258Z,1.00
2018-05-01T08:09:52.231Z,0.70
2018-05-01T08:12:19.176Z,0.70
2018-05-01T08:14:46.139Z,0.90
2018-05-01T08:17:13.124Z,0.80
2018-05-01T08:19:40.057Z,0.70
2018-05-01T08:22:07.033Z,0.90
2018-05-01T08:24:33.973Z,0.93
2018-05-01T08:27:00.923Z,0.90
2018-05-01T08:29:27.871Z,0.67
2018-05-01T08:31:54.827Z,0.63
2018-05-01T08:34:21.773Z,0.60
2018-05-01T08:36:48.727Z,0.80
2018-05-01T08:39:15.669Z,1.07
2018-05-01T08:41:42.619Z,0.93
2018-05-01T08:44:09.692Z,1.10
2018-05-01T08:46:36.636Z,0.80
2018-05-01T08:49:03.784Z,0.60
2018-05-01T08:51:30.900Z,1.00
2018-05-01T08:53:57.968Z,1.17
2018-05-01T08:56:24.911Z,1.00
2018-05-01T08:58:51.871Z,0.90
2018-05-01T09:01:18.837Z,0.90
2018-05-01T09:03:46.135Z,1.03
2018-05-01T09:06:13.103Z,0.80
2018-05-01T09:08:40.052Z,1.23
2018-05-01T09:11:07.011Z,1.50
2018-05-01T09:13:33.989Z,0.80
2018-05-01T09:16:00.979Z,1.00
2018-05-01T09:18:28.079Z,0.97
2018-05-01T09:20:54.975Z,1.40
2018-05-01T09:23:21.941Z,0.90
2018-05-01T09:25:48.888Z,1.13
2018-05-01T09:28:15.840Z,1.30
2018-05-01T09:30:42.892Z,1.10
2018-05-01T09:33:09.850Z,0.70
2018-05-01T09:35:37.000Z,0.83
2018-05-01T09:38:03.975Z,0.77
2018-05-01T09:40:30.916Z,1.27
2018-05-01T09:42:57.884Z,1.20
2018-05-01T09:45:25.204Z,1.40
2018-05-01T09:47:52.155Z,1.60
2018-05-01T09:50:19.124Z,1.20
2018-05-01T09:52:46.566Z,1.17
2018-05-01T09:55:14.028Z,1.30
2018-05-01T09:57:41.573Z,1.33
2018-05-01T10:00:09.026Z,1.50
2018-05-01T10:02:36.483Z,2.03
2018-05-01T10:05:03.924Z,1.60
2018-05-01T10:07:31.764Z,1.40
2018-05-01T10:09:59.200Z,1.23
2018-05-01T10:12:27.027Z,0.90
2018-05-01T10:14:54.762Z,1.53
2018-05-01T10:17:22.247Z,1.57
2018-05-01T10:19:49.728Z,1.30
2018-05-01T10:22:17.514Z,1.10
2018-05-01T10:24:44.954Z,1.30
2018-05-01T10:27:12.691Z,1.70
2018-05-01T10:29:40.517Z,1.00
2018-05-01T10:32:09.788Z,1.67
2018-05-01T10:34:37.276Z,2.17
2018-05-01T10:37:05.214Z,1.60
2018-05-01T10:39:32.652Z,1.70
2018-05-01T10:42:00.101Z,1.30
2018-05-01T10:44:27.540Z,1.37
2018-05-01T10:46:55.387Z,1.60
2018-05-01T10:49:22.881Z,1.77
2018-05-01T10:51:50.313Z,1.30
2018-05-01T10:54:17.923Z,1.50
2018-05-01T10:56:46.145Z,1.43
2018-05-01T10:59:13.595Z,1.63
2018-05-01T11:01:41.065Z,1.77
2018-05-01T11:04:08.675Z,1.37
2018-05-01T11:06:36.309Z,1.60
2018-05-01T11:09:03.804Z,2.27
2018-05-01T11:11:31.651Z,1.70
2018-05-01T11:13:59.084Z,1.90
2018-05-01T11:16:26.800Z,1.83
2018-05-01T11:18:56.119Z,1.20
2018-05-01T11:21:23.577Z,1.80
2018-05-01T11:23:51.021Z,1.57
2018-05-01T11:26:18.620Z,1.10
2018-05-01T11:28:46.360Z,1.93
2018-05-01T11:31:13.831Z,1.73
2018-05-01T11:33:41.729Z,1.53
2018-05-01T11:36:09.104Z,2.17
2018-05-01T11:38:36.617Z,1.77
2018-05-01T11:41:04.075Z,1.03
2018-05-01T11:43:31.731Z,1.90
2018-05-01T11:45:59.405Z,1.80
2018-05-01T11:48:26.998Z,1.50
2018-05-01T11:50:55.217Z,2.53
2018-05-01T11:53:22.647Z,1.50
2018-05-01T11:55:50.125Z,1.70
2018-05-01T11:58:17.548Z,1.87
2018-05-01T12:00:45.284Z,2.20
2018-05-01T12:03:12.802Z,1.70
2018-05-01T12:05:40.304Z,1.67
2018-05-01T12:08:07.852Z,1.93
2018-05-01T12:10:35.326Z,1.60
2018-05-01T12:13:03.105Z,1.80
2018-05-01T12:15:30.543Z,1.70
2018-05-01T12:17:58.017Z,1.43
2018-05-01T12:20:25.692Z,1.70
2018-05-01T12:22:53.365Z,2.07
2018-05-01T12:25:21.263Z,1.90
2018-05-01T12:27:48.708Z,2.33
2018-05-01T12:30:16.557Z,2.10
2018-05-01T12:32:44.006Z,1.70
2018-05-01T12:35:11.484Z,2.00
2018-05-01T12:37:38.914Z,2.00
2018-05-01T12:40:06.359Z,2.10
2018-05-01T12:42:33.871Z,2.40
2018-05-01T12:45:01.369Z,2.47
2018-05-01T12:47:29.190Z,1.87
2018-05-01T12:49:56.660Z,2.70
2018-05-01T12:52:24.138Z,2.37
2018-05-01T12:54:51.572Z,2.03
2018-05-01T12:57:19.521Z,2.40
2018-05-01T12:59:47.344Z,2.57
2018-05-01T13:02:14.960Z,2.43
2018-05-01T13:04:42.692Z,1.73
2018-05-01T13:07:10.130Z,2.53
2018-05-01T13:09:37.580Z,2.60
2018-05-01T13:12:05.060Z,2.10
2018-05-01T13:14:32.716Z,1.80
2018-05-01T13:17:00.178Z,1.53
2018-05-01T13:19:27.619Z,1.90
2018-05-01T13:21:55.323Z,2.17
2018-05-01T13:24:22.864Z,1.93
2018-05-01T13:26:50.291Z,1.90
2018-05-01T13:29:18.267Z,2.30
2018-05-01T13:31:45.723Z,1.90
2018-05-01T13:34:13.167Z,2.50
2018-05-01T13:36:40.697Z,1.57
2018-05-01T13:39:08.138Z,1.83
2018-05-01T13:41:35.599Z,2.23
2018-05-01T13:44:03.041Z,2.00
2018-05-01T13:46:30.504Z,2.90
2018-05-01T13:48:57.991Z,2.10
2018-05-01T13:51:25.392Z,1.80
2018-05-01T13:53:53.904Z,1.43
2018-05-01T13:56:21.343Z,1.60
2018-05-01T13:58:48.874Z,2.10
2018-05-01T14:01:16.425Z,1.83
2018-05-01T14:03:43.880Z,2.53
2018-05-01T14:06:11.632Z,1.60
2018-05-01T14:08:39.123Z,2.33
2018-05-01T14:11:06.662Z,1.83
2018-05-01T14:13:34.062Z,1.93
2018-05-01T14:16:02.122Z,2.20
2018-05-01T14:18:29.692Z,1.97
2018-05-01T14:20:57.631Z,2.67
2018-05-01T14:23:25.103Z,1.97
2018-05-01T14:25:52.660Z,1.50
2018-05-01T14:28:20.099Z,2.03
2018-05-01T14:30:47.576Z,1.53
2018-05-01T14:33:15.012Z,2.20
2018-05-01T14:35:42.451Z,1.90
2018-05-01T14:38:10.752Z,2.20
2018-05-01T14:40:38.557Z,1.83
2018-05-01T14:43:06.037Z,1.90
2018-05-01T14:45:33.475Z,1.70
2018-05-01T14:48:00.920Z,1.27
2018-05-01T14:50:28.359Z,1.87
2018-05-01T14:52:55.812Z,1.83
2018-05-01T14:55:23.314Z,1.77
2018-05-01T14:57:50.697Z,1.90
2018-05-01T15:00:18.264Z,1.40
2018-05-01T15:02:57.412Z,1.90
2018-05-01T15:05:25.456Z,1.53
2018-05-01T15:07:53.004Z,1.90
2018-05-01T15:10:20.452Z,1.53
2018-05-01T15:12:47.888Z,1.40
2018-05-01T15:15:15.335Z,1.70
2018-05-01T15:17:42.772Z,1.70
2018-05-01T15:20:10.208Z,1.80
2018-05-01T15:22:37.656Z,1.20
2018-05-01T15:25:05.097Z,1.70
2018-05-01T15:27:32.607Z,1.70
2018-05-01T15:30:00.055Z,1.77
2018-05-01T15:32:27.472Z,2.90
2018-05-01T15:34:55.036Z,2.50
2018-05-01T15:37:22.475Z,1.13
2018-05-01T15:39:49.929Z,1.53
2018-05-01T15:42:17.368Z,2.43
2018-05-01T15:44:44.839Z,1.70
2018-05-01T15:47:12.392Z,2.60
2018-05-01T15:49:39.819Z,1.50
2018-05-01T15:52:07.284Z,2.03
2018-05-01T15:54:34.723Z,1.53
2018-05-01T15:57:02.219Z,2.10
2018-05-01T15:59:29.669Z,2.07
2018-05-01T16:01:57.436Z,2.20
2018-05-01T16:04:24.891Z,1.73
2018-05-01T16:06:52.328Z,2.10
2018-05-01T16:09:19.771Z,1.60
2018-05-01T16:11:47.219Z,1.70
2018-05-01T16:14:14.707Z,1.50
2018-05-01T16:16:42.256Z,1.40
2018-05-01T16:19:09.797Z,1.80
2018-05-01T16:21:37.255Z,1.40
2018-05-01T16:24:04.712Z,1.80
2018-05-01T16:26:32.159Z,1.77
2018-05-01T16:28:59.591Z,1.53
2018-05-01T16:31:27.047Z,1.50
2018-05-01T16:33:54.557Z,2.30
2018-05-01T16:36:21.977Z,2.07
2018-05-01T16:38:49.420Z,1.77
2018-05-01T16:41:16.852Z,1.70
2018-05-01T16:43:44.312Z,1.77
2018-05-01T16:46:11.741Z,1.50
2018-05-01T16:48:39.269Z,1.97
2018-05-01T16:51:06.714Z,1.63
2018-05-01T16:53:34.183Z,1.60
2018-05-01T16:56:01.627Z,1.97
2018-05-01T16:58:29.085Z,2.10
2018-05-01T17:00:56.551Z,1.70
2018-05-01T17:03:24.032Z,1.83
2018-05-01T17:05:51.468Z,1.57
2018-05-01T17:08:18.918Z,2.07
2018-05-01T17:10:46.371Z,1.50
2018-05-01T17:13:13.828Z,2.33
2018-05-01T17:15:41.277Z,1.93
2018-05-01T17:18:08.724Z,1.60
2018-05-01T17:20:36.179Z,2.03
2018-05-01T17:23:03.716Z,2.93
2018-05-01T17:25:31.173Z,1.70
2018-05-01T17:27:58.597Z,1.60
2018-05-01T17:30:26.037Z,2.13
2018-05-01T17:32:53.652Z,2.17
2018-05-01T17:35:21.083Z,2.00
2018-05-01T17:37:48.544Z,2.00
2018-05-01T17:40:15.975Z,1.90
2018-05-01T17:42:43.411Z,1.77
2018-05-01T17:45:10.880Z,2.10
2018-05-01T17:47:38.328Z,1.93
2018-05-01T17:50:05.779Z,1.90
2018-05-01T17:52:33.246Z,2.10
2018-05-01T17:55:00.693Z,1.13
2018-05-01T17:57:28.165Z,1.90
2018-05-01T17:59:55.597Z,1.40
2018-05-01T18:02:23.177Z,2.27
2018-05-01T18:04:50.615Z,2.20
2018-05-01T18:07:18.064Z,1.70
2018-05-01T18:09:45.504Z,2.17
2018-05-01T18:12:12.935Z,2.07
2018-05-01T18:14:40.385Z,1.83
2018-05-01T18:17:07.837Z,2.60
2018-05-01T18:19:35.309Z,2.00
2018-05-01T18:22:02.766Z,1.60
2018-05-01T18:24:30.204Z,2.10
2018-05-01T18:26:57.659Z,1.53
2018-05-01T18:29:25.864Z,1.40
2018-05-01T18:31:53.299Z,1.50
2018-05-01T18:34:20.744Z,1.43
2018-05-01T18:36:48.375Z,1.57
2018-05-01T18:39:15.823Z,1.30
2018-05-01T18:41:43.272Z,1.97
2018-05-01T18:44:10.724Z,1.00
2018-05-01T18:46:38.159Z,2.27
2018-05-01T18:49:05.748Z,1.20
2018-05-01T18:51:33.200Z,1.13
2018-05-01T18:54:00.642Z,1.30
2018-05-01T18:56:28.092Z,2.00
2018-05-01T18:58:55.536Z,1.17
2018-05-01T19:01:22.983Z,1.20
2018-05-01T19:03:50.426Z,1.87
2018-05-01T19:06:17.872Z,1.60
2018-05-01T19:08:45.319Z,1.97
2018-05-01T19:11:12.919Z,1.47
2018-05-01T19:13:40.357Z,2.20
2018-05-01T19:16:07.803Z,3.03
2018-05-01T19:18:35.256Z,1.97
2018-05-01T19:21:02.701Z,1.80
2018-05-01T19:23:30.539Z,1.70
2018-05-01T19:25:58.039Z,1.37
2018-05-01T19:28:25.487Z,1.80
2018-05-01T19:30:53.328Z,1.50
2018-05-01T19:33:20.767Z,1.53
2018-05-01T19:35:48.216Z,2.03
2018-05-01T19:38:15.728Z,1.40
2018-05-01T19:40:43.179Z,1.60
2018-05-01T19:43:10.620Z,1.13
2018-05-01T19:45:38.910Z,1.97
2018-05-01T19:48:06.353Z,1.43
2018-05-01T19:50:33.937Z,1.60
2018-05-01T19:53:01.376Z,1.93
2018-05-01T19:55:28.817Z,1.83
2018-05-01T19:57:56.247Z,1.97
2018-05-01T20:00:23.700Z,2.10
2018-05-01T20:02:51.148Z,2.23
2018-05-01T20:05:18.596Z,2.30
2018-05-01T20:07:46.049Z,1.77
2018-05-01T20:10:13.492Z,1.97
2018-05-01T20:12:40.953Z,1.60
2018-05-01T20:15:08.391Z,2.27
2018-05-01T20:17:35.905Z,2.60
2018-05-01T20:20:03.409Z,2.57
2018-05-01T20:22:30.796Z,2.13
2018-05-01T20:24:58.240Z,1.70
2018-05-01T20:27:25.698Z,1.77
2018-05-01T20:29:53.883Z,2.20
2018-05-01T20:32:21.415Z,1.60
2018-05-01T20:34:49.056Z,2.67
2018-05-01T20:37:16.478Z,2.00
2018-05-01T20:39:43.922Z,2.00
2018-05-01T20:42:11.372Z,1.50
2018-05-01T20:44:38.828Z,2.27
2018-05-01T20:47:06.268Z,1.60
2018-05-01T20:49:33.699Z,1.67
2018-05-01T20:52:01.158Z,2.30
2018-05-01T20:54:28.600Z,1.90
2018-05-01T20:56:56.696Z,2.00
2018-05-01T20:59:24.488Z,2.40
2018-05-01T21:01:51.944Z,1.80
2018-05-01T21:04:19.363Z,1.53
2018-05-01T21:06:47.003Z,2.20
2018-05-01T21:09:14.451Z,1.47
2018-05-01T21:11:41.893Z,2.37
2018-05-01T21:14:09.324Z,1.50
2018-05-01T21:16:37.528Z,1.90
2018-05-01T21:19:04.960Z,2.23
2018-05-01T21:21:32.437Z,1.70
2018-05-01T21:23:59.876Z,2.40
2018-05-01T21:26:27.316Z,1.93
2018-05-01T21:28:54.843Z,1.70
2018-05-01T21:31:22.208Z,2.13
2018-05-01T21:33:49.649Z,2.90
2018-05-01T21:36:17.107Z,2.30
2018-05-01T21:38:44.524Z,1.50
2018-05-01T21:41:11.975Z,1.40
2018-05-01T21:43:39.411Z,2.20
2018-05-01T21:46:06.873Z,1.30
2018-05-01T21:48:34.329Z,3.00
2018-05-01T21:51:01.998Z,1.63
2018-05-01T21:53:29.453Z,2.37
2018-05-01T21:55:57.240Z,2.23
2018-05-01T21:58:24.698Z,2.03
2018-05-01T22:00:52.132Z,2.43
2018-05-01T22:03:19.646Z,2.00
2018-05-01T22:05:47.110Z,2.07
2018-05-01T22:08:14.549Z,2.10
2018-05-01T22:10:41.995Z,2.27
2018-05-01T22:13:09.427Z,1.53
2018-05-01T22:15:36.867Z,1.93
2018-05-01T22:18:05.082Z,1.53
2018-05-01T22:20:32.508Z,1.90
2018-05-01T22:22:59.968Z,1.90
2018-05-01T22:25:27.612Z,1.70
2018-05-01T22:27:55.048Z,2.30
2018-05-01T22:30:22.496Z,2.57
2018-05-01T22:32:49.927Z,2.43
2018-05-01T22:35:17.381Z,2.47
2018-05-01T22:37:44.800Z,2.37
2018-05-01T22:40:12.231Z,2.70
2018-05-01T22:42:39.738Z,1.90
2018-05-01T22:45:07.166Z,2.97
2018-05-01T22:47:34.607Z,3.20
2018-05-01T22:50:02.228Z,3.00
2018-05-01T22:52:29.690Z,2.47
2018-05-01T22:54:57.100Z,2.40
2018-05-01T22:57:24.526Z,2.57
2018-05-01T22:59:52.739Z,1.90
2018-05-01T23:02:20.340Z,2.20
2018-05-01T23:04:47.782Z,2.87
2018-05-01T23:07:15.219Z,2.63
2018-05-01T23:09:42.663Z,2.70
2018-05-01T23:12:10.095Z,3.13
2018-05-01T23:14:37.639Z,2.50
2018-05-01T23:17:05.089Z,3.30
2018-05-01T23:19:32.517Z,3.10
2018-05-01T23:21:59.960Z,2.20
2018-05-01T23:24:27.387Z,2.53
2018-05-01T23:26:55.736Z,2.30
2018-05-01T23:29:23.175Z,2.73
2018-05-01T23:31:50.623Z,2.80
2018-05-01T23:34:18.119Z,2.83
2018-05-01T23:36:45.551Z,2.33
2018-05-01T23:39:12.987Z,2.37
2018-05-01T23:41:40.434Z,3.03
2018-05-01T23:44:07.864Z,4.23
2018-05-01T23:46:35.307Z,2.00
2018-05-01T23:49:02.741Z,2.23
2018-05-01T23:51:30.952Z,2.97
2018-05-01T23:53:59.169Z,2.40
2018-05-01T23:56:26.601Z,2.20
2018-05-01T23:58:54.404Z,2.07
